sensor_id;sensor_type;location;lat;lon;timestamp;P1;durP1;ratioP1;P2;durP2;ratioP2
19869;SDS011;10097;50.862;4.696;2022-09-30T00:01:51;17.30;;;6.27;;
19869;SDS011;10097;50.862;4.696;2022-09-30T00:04:21;11.97;;;5.93;;
19869;SDS011;10097;50.862;4.696;2022-09-30T00:06:52;12.00;;;6.23;;
19869;SDS011;10097;50.862;4.696;2022-09-30T00:09:19;13.13;;;6.63;;
19869;SDS011;10097;50.862;4.696;2022-09-30T00:11:45;20.37;;;7.20;;
19869;SDS011;10097;50.862;4.696;2022-09-30T00:14:13;19.97;;;7.13;;
19869;SDS011;10097;50.862;4.696;2022-09-30T00:16:43;14.50;;;7.63;;
19869;SDS011;10097;50.862;4.696;2022-09-30T00:19:09;13.10;;;6.83;;
19869;SDS011;10097;50.862;4.696;2022-09-30T00:21:38;15.67;;;7.27;;
19869;SDS011;10097;50.862;4.696;2022-09-30T00:24:04;13.00;;;7.40;;
19869;SDS011;10097;50.862;4.696;2022-09-30T00:26:31;14.80;;;7.53;;
19869;SDS011;10097;50.862;4.696;2022-09-30T00:29:01;13.87;;;7.17;;
19869;SDS011;10097;50.862;4.696;2022-09-30T00:31:35;15.47;;;7.07;;
19869;SDS011;10097;50.862;4.696;2022-09-30T00:34:03;12.27;;;6.40;;
19869;SDS011;10097;50.862;4.696;2022-09-30T00:36:40;13.07;;;6.63;;
19869;SDS011;10097;50.862;4.696;2022-09-30T00:39:19;11.63;;;6.20;;
19869;SDS011;10097;50.862;4.696;2022-09-30T00:41:46;13.33;;;6.33;;
19869;SDS011;10097;50.862;4.696;2022-09-30T00:44:59;11.47;;;5.80;;
19869;SDS011;10097;50.862;4.696;2022-09-30T00:47:18;12.30;;;6.20;;
19869;SDS011;10097;50.862;4.696;2022-09-30T00:49:59;16.90;;;7.73;;
19869;SDS011;10097;50.862;4.696;2022-09-30T00:52:47;14.23;;;6.57;;
19869;SDS011;10097;50.862;4.696;2022-09-30T01:01:09;12.50;;;6.13;;
19869;SDS011;10097;50.862;4.696;2022-09-30T01:03:36;14.00;;;6.63;;
19869;SDS011;10097;50.862;4.696;2022-09-30T01:06:11;15.20;;;6.87;;
19869;SDS011;10097;50.862;4.696;2022-09-30T01:08:37;16.60;;;7.43;;
19869;SDS011;10097;50.862;4.696;2022-09-30T01:11:06;16.20;;;6.93;;
19869;SDS011;10097;50.862;4.696;2022-09-30T01:13:37;13.50;;;6.57;;
19869;SDS011;10097;50.862;4.696;2022-09-30T01:21:33;14.47;;;6.43;;
19869;SDS011;10097;50.862;4.696;2022-09-30T01:24:20;15.37;;;8.10;;
19869;SDS011;10097;50.862;4.696;2022-09-30T01:26:56;20.33;;;8.23;;
19869;SDS011;10097;50.862;4.696;2022-09-30T01:29:27;22.37;;;8.57;;
19869;SDS011;10097;50.862;4.696;2022-09-30T01:32:38;19.10;;;7.77;;
19869;SDS011;10097;50.862;4.696;2022-09-30T01:38:19;19.67;;;7.77;;
19869;SDS011;10097;50.862;4.696;2022-09-30T01:48:50;16.10;;;8.33;;
19869;SDS011;10097;50.862;4.696;2022-09-30T01:51:29;15.83;;;8.53;;
19869;SDS011;10097;50.862;4.696;2022-09-30T01:56:48;14.70;;;7.93;;
19869;SDS011;10097;50.862;4.696;2022-09-30T01:59:32;16.43;;;7.90;;
19869;SDS011;10097;50.862;4.696;2022-09-30T02:02:04;14.87;;;8.27;;
19869;SDS011;10097;50.862;4.696;2022-09-30T02:04:44;14.47;;;7.83;;
19869;SDS011;10097;50.862;4.696;2022-09-30T02:07:32;17.23;;;7.77;;
19869;SDS011;10097;50.862;4.696;2022-09-30T02:10:07;23.50;;;10.17;;
19869;SDS011;10097;50.862;4.696;2022-09-30T02:12:41;14.20;;;7.03;;
19869;SDS011;10097;50.862;4.696;2022-09-30T02:15:14;14.20;;;7.27;;
19869;SDS011;10097;50.862;4.696;2022-09-30T02:17:46;16.97;;;7.50;;
19869;SDS011;10097;50.862;4.696;2022-09-30T02:20:25;14.77;;;7.63;;
19869;SDS011;10097;50.862;4.696;2022-09-30T02:25:54;15.53;;;8.10;;
19869;SDS011;10097;50.862;4.696;2022-09-30T02:28:29;16.13;;;8.13;;
19869;SDS011;10097;50.862;4.696;2022-09-30T02:31:03;17.00;;;9.40;;
19869;SDS011;10097;50.862;4.696;2022-09-30T02:36:11;16.53;;;9.50;;
19869;SDS011;10097;50.862;4.696;2022-09-30T02:38:47;15.60;;;9.23;;
19869;SDS011;10097;50.862;4.696;2022-09-30T02:41:37;15.13;;;8.27;;
19869;SDS011;10097;50.862;4.696;2022-09-30T02:44:34;19.27;;;9.20;;
19869;SDS011;10097;50.862;4.696;2022-09-30T02:58:19;17.13;;;8.60;;
19869;SDS011;10097;50.862;4.696;2022-09-30T03:00:46;15.43;;;8.90;;
19869;SDS011;10097;50.862;4.696;2022-09-30T03:03:17;16.20;;;9.63;;
19869;SDS011;10097;50.862;4.696;2022-09-30T03:05:50;16.10;;;9.33;;
19869;SDS011;10097;50.862;4.696;2022-09-30T03:08:16;20.47;;;9.90;;
19869;SDS011;10097;50.862;4.696;2022-09-30T03:10:46;15.77;;;8.87;;
19869;SDS011;10097;50.862;4.696;2022-09-30T03:19:14;19.57;;;9.13;;
19869;SDS011;10097;50.862;4.696;2022-09-30T03:24:09;16.93;;;9.73;;
19869;SDS011;10097;50.862;4.696;2022-09-30T03:29:56;18.00;;;9.10;;
19869;SDS011;10097;50.862;4.696;2022-09-30T03:35:07;15.63;;;9.07;;
19869;SDS011;10097;50.862;4.696;2022-09-30T03:37:42;16.87;;;8.90;;
19869;SDS011;10097;50.862;4.696;2022-09-30T03:40:21;17.67;;;9.90;;
19869;SDS011;10097;50.862;4.696;2022-09-30T03:43:34;20.50;;;10.50;;
19869;SDS011;10097;50.862;4.696;2022-09-30T03:46:02;19.60;;;10.53;;
19869;SDS011;10097;50.862;4.696;2022-09-30T03:48:31;19.90;;;10.83;;
19869;SDS011;10097;50.862;4.696;2022-09-30T03:50:59;19.63;;;10.20;;
19869;SDS011;10097;50.862;4.696;2022-09-30T03:53:25;19.07;;;10.70;;
19869;SDS011;10097;50.862;4.696;2022-09-30T03:55:52;18.00;;;10.73;;
19869;SDS011;10097;50.862;4.696;2022-09-30T03:58:19;19.83;;;9.80;;
19869;SDS011;10097;50.862;4.696;2022-09-30T04:00:50;22.43;;;11.43;;
19869;SDS011;10097;50.862;4.696;2022-09-30T04:03:18;19.60;;;10.60;;
19869;SDS011;10097;50.862;4.696;2022-09-30T04:05:47;17.73;;;9.77;;
19869;SDS011;10097;50.862;4.696;2022-09-30T04:08:15;19.70;;;10.97;;
19869;SDS011;10097;50.862;4.696;2022-09-30T04:10:41;19.07;;;10.20;;
19869;SDS011;10097;50.862;4.696;2022-09-30T04:13:08;20.20;;;10.53;;
19869;SDS011;10097;50.862;4.696;2022-09-30T04:15:34;19.13;;;10.63;;
19869;SDS011;10097;50.862;4.696;2022-09-30T04:18:04;20.33;;;10.23;;
19869;SDS011;10097;50.862;4.696;2022-09-30T04:20:36;19.17;;;9.97;;
19869;SDS011;10097;50.862;4.696;2022-09-30T04:23:05;17.67;;;9.97;;
19869;SDS011;10097;50.862;4.696;2022-09-30T04:25:41;21.23;;;11.80;;
19869;SDS011;10097;50.862;4.696;2022-09-30T04:28:12;21.70;;;10.43;;
19869;SDS011;10097;50.862;4.696;2022-09-30T04:30:40;23.63;;;11.00;;
19869;SDS011;10097;50.862;4.696;2022-09-30T04:33:11;18.67;;;9.93;;
19869;SDS011;10097;50.862;4.696;2022-09-30T04:35:40;18.43;;;9.63;;
19869;SDS011;10097;50.862;4.696;2022-09-30T04:38:09;20.73;;;10.70;;
19869;SDS011;10097;50.862;4.696;2022-09-30T04:40:37;21.80;;;11.30;;
19869;SDS011;10097;50.862;4.696;2022-09-30T04:43:05;18.93;;;10.50;;
19869;SDS011;10097;50.862;4.696;2022-09-30T04:45:51;18.70;;;9.57;;
19869;SDS011;10097;50.862;4.696;2022-09-30T04:48:24;21.47;;;11.40;;
19869;SDS011;10097;50.862;4.696;2022-09-30T04:50:51;19.83;;;11.07;;
19869;SDS011;10097;50.862;4.696;2022-09-30T04:53:18;21.73;;;10.87;;
19869;SDS011;10097;50.862;4.696;2022-09-30T04:55:46;19.20;;;11.07;;
19869;SDS011;10097;50.862;4.696;2022-09-30T04:58:12;26.73;;;12.97;;
19869;SDS011;10097;50.862;4.696;2022-09-30T05:00:41;21.57;;;11.87;;
19869;SDS011;10097;50.862;4.696;2022-09-30T05:03:12;27.37;;;12.13;;
19869;SDS011;10097;50.862;4.696;2022-09-30T05:05:42;24.90;;;12.50;;
19869;SDS011;10097;50.862;4.696;2022-09-30T05:08:20;22.60;;;11.87;;
19869;SDS011;10097;50.862;4.696;2022-09-30T05:13:32;21.67;;;11.60;;
19869;SDS011;10097;50.862;4.696;2022-09-30T05:15:59;22.30;;;11.77;;
19869;SDS011;10097;50.862;4.696;2022-09-30T05:18:33;22.13;;;12.13;;
19869;SDS011;10097;50.862;4.696;2022-09-30T05:20:59;18.73;;;11.37;;
19869;SDS011;10097;50.862;4.696;2022-09-30T05:23:28;28.90;;;13.30;;
19869;SDS011;10097;50.862;4.696;2022-09-30T05:25:58;26.93;;;13.53;;
19869;SDS011;10097;50.862;4.696;2022-09-30T05:28:34;27.00;;;14.07;;
19869;SDS011;10097;50.862;4.696;2022-09-30T05:31:02;25.33;;;13.97;;
19869;SDS011;10097;50.862;4.696;2022-09-30T05:33:34;24.63;;;13.47;;
19869;SDS011;10097;50.862;4.696;2022-09-30T05:36:11;24.83;;;12.63;;
19869;SDS011;10097;50.862;4.696;2022-09-30T05:38:41;25.87;;;13.30;;
19869;SDS011;10097;50.862;4.696;2022-09-30T05:41:14;23.70;;;11.70;;
19869;SDS011;10097;50.862;4.696;2022-09-30T05:43:43;25.97;;;12.50;;
19869;SDS011;10097;50.862;4.696;2022-09-30T05:46:14;24.77;;;12.00;;
19869;SDS011;10097;50.862;4.696;2022-09-30T05:48:41;22.67;;;11.93;;
19869;SDS011;10097;50.862;4.696;2022-09-30T05:51:07;23.20;;;12.70;;
19869;SDS011;10097;50.862;4.696;2022-09-30T05:53:36;26.63;;;13.03;;
19869;SDS011;10097;50.862;4.696;2022-09-30T05:56:09;28.83;;;15.93;;
19869;SDS011;10097;50.862;4.696;2022-09-30T05:58:38;27.10;;;14.93;;
19869;SDS011;10097;50.862;4.696;2022-09-30T06:01:15;28.03;;;15.37;;
19869;SDS011;10097;50.862;4.696;2022-09-30T06:03:46;24.87;;;13.37;;
19869;SDS011;10097;50.862;4.696;2022-09-30T06:06:22;25.67;;;12.50;;
19869;SDS011;10097;50.862;4.696;2022-09-30T06:08:50;38.00;;;16.97;;
19869;SDS011;10097;50.862;4.696;2022-09-30T06:11:17;35.83;;;14.93;;
19869;SDS011;10097;50.862;4.696;2022-09-30T06:13:47;36.10;;;18.67;;
19869;SDS011;10097;50.862;4.696;2022-09-30T06:16:16;31.20;;;16.57;;
19869;SDS011;10097;50.862;4.696;2022-09-30T06:18:47;37.60;;;18.97;;
19869;SDS011;10097;50.862;4.696;2022-09-30T06:21:23;32.90;;;15.37;;
19869;SDS011;10097;50.862;4.696;2022-09-30T06:23:51;34.10;;;17.80;;
19869;SDS011;10097;50.862;4.696;2022-09-30T06:26:20;33.87;;;17.40;;
19869;SDS011;10097;50.862;4.696;2022-09-30T06:28:45;35.63;;;17.30;;
19869;SDS011;10097;50.862;4.696;2022-09-30T06:31:18;34.90;;;18.03;;
19869;SDS011;10097;50.862;4.696;2022-09-30T06:33:56;38.80;;;18.47;;
19869;SDS011;10097;50.862;4.696;2022-09-30T06:36:22;43.27;;;19.57;;
19869;SDS011;10097;50.862;4.696;2022-09-30T06:38:55;43.60;;;20.40;;
19869;SDS011;10097;50.862;4.696;2022-09-30T06:41:23;46.13;;;21.00;;
19869;SDS011;10097;50.862;4.696;2022-09-30T06:43:54;41.93;;;19.63;;
19869;SDS011;10097;50.862;4.696;2022-09-30T06:46:23;46.73;;;20.60;;
19869;SDS011;10097;50.862;4.696;2022-09-30T06:48:53;52.10;;;23.33;;
19869;SDS011;10097;50.862;4.696;2022-09-30T06:51:28;53.53;;;20.53;;
19869;SDS011;10097;50.862;4.696;2022-09-30T06:53:57;42.43;;;21.23;;
19869;SDS011;10097;50.862;4.696;2022-09-30T06:56:28;45.17;;;20.57;;
19869;SDS011;10097;50.862;4.696;2022-09-30T06:59:02;41.97;;;20.33;;
19869;SDS011;10097;50.862;4.696;2022-09-30T07:01:39;47.43;;;23.10;;
19869;SDS011;10097;50.862;4.696;2022-09-30T07:04:13;40.70;;;20.57;;
19869;SDS011;10097;50.862;4.696;2022-09-30T07:06:49;43.63;;;21.93;;
19869;SDS011;10097;50.862;4.696;2022-09-30T07:09:24;98.27;;;27.30;;
19869;SDS011;10097;50.862;4.696;2022-09-30T07:11:55;63.03;;;25.00;;
19869;SDS011;10097;50.862;4.696;2022-09-30T07:14:23;56.83;;;25.30;;
19869;SDS011;10097;50.862;4.696;2022-09-30T07:16:59;51.37;;;24.40;;
19869;SDS011;10097;50.862;4.696;2022-09-30T07:19:31;49.03;;;23.83;;
19869;SDS011;10097;50.862;4.696;2022-09-30T07:22:00;47.80;;;23.77;;
19869;SDS011;10097;50.862;4.696;2022-09-30T07:24:49;48.23;;;24.47;;
19869;SDS011;10097;50.862;4.696;2022-09-30T07:27:18;65.53;;;29.33;;
19869;SDS011;10097;50.862;4.696;2022-09-30T07:29:49;60.77;;;30.27;;
19869;SDS011;10097;50.862;4.696;2022-09-30T07:32:29;79.10;;;33.47;;
19869;SDS011;10097;50.862;4.696;2022-09-30T07:34:55;71.47;;;34.20;;
19869;SDS011;10097;50.862;4.696;2022-09-30T07:37:21;72.73;;;34.00;;
19869;SDS011;10097;50.862;4.696;2022-09-30T07:39:51;78.20;;;36.83;;
19869;SDS011;10097;50.862;4.696;2022-09-30T07:42:18;78.07;;;36.27;;
19869;SDS011;10097;50.862;4.696;2022-09-30T07:44:49;73.60;;;35.60;;
19869;SDS011;10097;50.862;4.696;2022-09-30T07:47:17;76.23;;;34.43;;
19869;SDS011;10097;50.862;4.696;2022-09-30T07:49:44;80.03;;;36.00;;
19869;SDS011;10097;50.862;4.696;2022-09-30T07:52:12;73.83;;;34.37;;
19869;SDS011;10097;50.862;4.696;2022-09-30T07:54:41;67.13;;;32.23;;
19869;SDS011;10097;50.862;4.696;2022-09-30T07:57:09;66.93;;;33.60;;
19869;SDS011;10097;50.862;4.696;2022-09-30T07:59:46;66.40;;;31.63;;
19869;SDS011;10097;50.862;4.696;2022-09-30T08:02:24;60.57;;;31.13;;
19869;SDS011;10097;50.862;4.696;2022-09-30T08:04:57;58.87;;;30.57;;
19869;SDS011;10097;50.862;4.696;2022-09-30T08:07:26;60.07;;;29.87;;
19869;SDS011;10097;50.862;4.696;2022-09-30T08:09:51;58.83;;;31.10;;
19869;SDS011;10097;50.862;4.696;2022-09-30T08:12:26;54.90;;;29.50;;
19869;SDS011;10097;50.862;4.696;2022-09-30T08:14:52;57.33;;;28.37;;
19869;SDS011;10097;50.862;4.696;2022-09-30T08:17:21;54.67;;;30.90;;
19869;SDS011;10097;50.862;4.696;2022-09-30T08:19:49;54.70;;;28.80;;
19869;SDS011;10097;50.862;4.696;2022-09-30T08:22:17;55.63;;;28.60;;
19869;SDS011;10097;50.862;4.696;2022-09-30T08:25:16;50.20;;;26.57;;
19869;SDS011;10097;50.862;4.696;2022-09-30T08:27:44;53.20;;;26.73;;
19869;SDS011;10097;50.862;4.696;2022-09-30T08:30:12;48.90;;;25.23;;
19869;SDS011;10097;50.862;4.696;2022-09-30T08:32:45;46.00;;;23.57;;
19869;SDS011;10097;50.862;4.696;2022-09-30T08:35:14;44.37;;;24.50;;
19869;SDS011;10097;50.862;4.696;2022-09-30T08:37:50;43.50;;;23.10;;
19869;SDS011;10097;50.862;4.696;2022-09-30T08:40:52;39.20;;;21.97;;
19869;SDS011;10097;50.862;4.696;2022-09-30T08:43:30;41.03;;;21.40;;
19869;SDS011;10097;50.862;4.696;2022-09-30T08:51:34;39.63;;;19.97;;
19869;SDS011;10097;50.862;4.696;2022-09-30T08:54:04;32.10;;;17.33;;
19869;SDS011;10097;50.862;4.696;2022-09-30T08:56:33;34.97;;;19.27;;
19869;SDS011;10097;50.862;4.696;2022-09-30T08:59:07;33.33;;;18.40;;
19869;SDS011;10097;50.862;4.696;2022-09-30T09:01:43;30.77;;;17.43;;
19869;SDS011;10097;50.862;4.696;2022-09-30T09:04:12;33.47;;;17.87;;
19869;SDS011;10097;50.862;4.696;2022-09-30T09:06:56;29.23;;;16.47;;
19869;SDS011;10097;50.862;4.696;2022-09-30T09:12:12;27.63;;;15.87;;
19869;SDS011;10097;50.862;4.696;2022-09-30T09:14:55;26.20;;;15.50;;
19869;SDS011;10097;50.862;4.696;2022-09-30T09:20:41;24.87;;;14.20;;
19869;SDS011;10097;50.862;4.696;2022-09-30T09:23:20;27.57;;;12.90;;
19869;SDS011;10097;50.862;4.696;2022-09-30T09:25:47;26.07;;;13.17;;
19869;SDS011;10097;50.862;4.696;2022-09-30T09:28:28;27.60;;;13.80;;
19869;SDS011;10097;50.862;4.696;2022-09-30T09:31:07;22.13;;;11.87;;
19869;SDS011;10097;50.862;4.696;2022-09-30T09:33:41;19.83;;;10.70;;
19869;SDS011;10097;50.862;4.696;2022-09-30T09:44:26;18.10;;;10.57;;
19869;SDS011;10097;50.862;4.696;2022-09-30T09:47:04;17.03;;;9.60;;
19869;SDS011;10097;50.862;4.696;2022-09-30T09:55:10;16.43;;;8.40;;
19869;SDS011;10097;50.862;4.696;2022-09-30T09:57:41;16.43;;;8.10;;
19869;SDS011;10097;50.862;4.696;2022-09-30T10:00:30;16.30;;;8.23;;
19869;SDS011;10097;50.862;4.696;2022-09-30T10:05:42;14.80;;;7.10;;
19869;SDS011;10097;50.862;4.696;2022-09-30T10:08:10;14.80;;;6.20;;
19869;SDS011;10097;50.862;4.696;2022-09-30T10:10:47;10.30;;;4.90;;
19869;SDS011;10097;50.862;4.696;2022-09-30T10:13:22;13.57;;;4.80;;
19869;SDS011;10097;50.862;4.696;2022-09-30T10:15:54;13.43;;;5.17;;
19869;SDS011;10097;50.862;4.696;2022-09-30T10:18:24;11.20;;;4.87;;
19869;SDS011;10097;50.862;4.696;2022-09-30T10:21:01;10.17;;;3.70;;
19869;SDS011;10097;50.862;4.696;2022-09-30T10:23:40;10.03;;;3.90;;
19869;SDS011;10097;50.862;4.696;2022-09-30T10:28:45;7.80;;;3.10;;
19869;SDS011;10097;50.862;4.696;2022-09-30T10:31:26;6.87;;;2.87;;
19869;SDS011;10097;50.862;4.696;2022-09-30T10:36:43;4.87;;;1.90;;
19869;SDS011;10097;50.862;4.696;2022-09-30T10:39:31;11.57;;;2.13;;
19869;SDS011;10097;50.862;4.696;2022-09-30T10:44:51;3.87;;;1.50;;
19869;SDS011;10097;50.862;4.696;2022-09-30T10:47:28;7.90;;;1.75;;
19869;SDS011;10097;50.862;4.696;2022-09-30T10:49:57;4.15;;;1.50;;
19869;SDS011;10097;50.862;4.696;2022-09-30T10:52:35;4.07;;;1.63;;
19869;SDS011;10097;50.862;4.696;2022-09-30T10:57:50;9.65;;;1.98;;
19869;SDS011;10097;50.862;4.696;2022-09-30T11:00:41;5.85;;;1.40;;
19869;SDS011;10097;50.862;4.696;2022-09-30T11:03:12;3.63;;;1.15;;
19869;SDS011;10097;50.862;4.696;2022-09-30T11:05:47;5.38;;;1.92;;
19869;SDS011;10097;50.862;4.696;2022-09-30T11:16:34;4.15;;;1.23;;
19869;SDS011;10097;50.862;4.696;2022-09-30T11:21:56;4.10;;;1.40;;
19869;SDS011;10097;50.862;4.696;2022-09-30T11:29:58;7.18;;;1.58;;
19869;SDS011;10097;50.862;4.696;2022-09-30T11:41:08;6.28;;;1.60;;
19869;SDS011;10097;50.862;4.696;2022-09-30T11:43:45;5.95;;;1.50;;
19869;SDS011;10097;50.862;4.696;2022-09-30T11:46:27;3.25;;;1.50;;
19869;SDS011;10097;50.862;4.696;2022-09-30T11:59:59;8.40;;;2.67;;
19869;SDS011;10097;50.862;4.696;2022-09-30T12:02:45;7.68;;;2.70;;
19869;SDS011;10097;50.862;4.696;2022-09-30T12:05:26;9.57;;;2.85;;
19869;SDS011;10097;50.862;4.696;2022-09-30T12:08:19;14.40;;;4.10;;
19869;SDS011;10097;50.862;4.696;2022-09-30T12:11:09;8.43;;;3.10;;
19869;SDS011;10097;50.862;4.696;2022-09-30T12:13:50;7.78;;;3.00;;
19869;SDS011;10097;50.862;4.696;2022-09-30T12:16:26;10.70;;;3.42;;
19869;SDS011;10097;50.862;4.696;2022-09-30T12:18:59;6.70;;;2.45;;
19869;SDS011;10097;50.862;4.696;2022-09-30T12:21:38;7.57;;;3.22;;
19869;SDS011;10097;50.862;4.696;2022-09-30T12:24:35;10.82;;;2.80;;
19869;SDS011;10097;50.862;4.696;2022-09-30T12:27:19;11.32;;;2.75;;
19869;SDS011;10097;50.862;4.696;2022-09-30T12:30:15;6.53;;;2.50;;
19869;SDS011;10097;50.862;4.696;2022-09-30T12:38:36;10.90;;;3.17;;
19869;SDS011;10097;50.862;4.696;2022-09-30T12:49:25;7.72;;;2.50;;
19869;SDS011;10097;50.862;4.696;2022-09-30T12:52:05;10.70;;;2.70;;
19869;SDS011;10097;50.862;4.696;2022-09-30T12:54:45;8.13;;;3.35;;
19869;SDS011;10097;50.862;4.696;2022-09-30T12:57:21;5.65;;;2.00;;
19869;SDS011;10097;50.862;4.696;2022-09-30T12:59:59;7.93;;;2.95;;
19869;SDS011;10097;50.862;4.696;2022-09-30T13:10:59;5.82;;;2.33;;
19869;SDS011;10097;50.862;4.696;2022-09-30T13:13:58;9.25;;;3.00;;
19869;SDS011;10097;50.862;4.696;2022-09-30T13:19:38;6.93;;;2.50;;
19869;SDS011;10097;50.862;4.696;2022-09-30T13:27:49;8.18;;;3.03;;
19869;SDS011;10097;50.862;4.696;2022-09-30T13:30:43;5.55;;;1.85;;
19869;SDS011;10097;50.862;4.696;2022-09-30T13:33:38;5.38;;;1.80;;
19869;SDS011;10097;50.862;4.696;2022-09-30T13:36:17;5.32;;;2.00;;
19869;SDS011;10097;50.862;4.696;2022-09-30T13:39:04;6.25;;;2.35;;
19869;SDS011;10097;50.862;4.696;2022-09-30T13:41:54;4.75;;;1.75;;
19869;SDS011;10097;50.862;4.696;2022-09-30T13:50:18;6.53;;;2.20;;
19869;SDS011;10097;50.862;4.696;2022-09-30T13:52:55;5.93;;;1.98;;
19869;SDS011;10097;50.862;4.696;2022-09-30T13:55:35;7.15;;;1.70;;
19869;SDS011;10097;50.862;4.696;2022-09-30T14:03:35;2.33;;;1.20;;
19869;SDS011;10097;50.862;4.696;2022-09-30T14:22:50;6.43;;;1.40;;
19869;SDS011;10097;50.862;4.696;2022-09-30T14:25:17;4.57;;;0.90;;
19869;SDS011;10097;50.862;4.696;2022-09-30T14:30:21;1.88;;;1.00;;
19869;SDS011;10097;50.862;4.696;2022-09-30T14:32:55;3.97;;;1.15;;
19869;SDS011;10097;50.862;4.696;2022-09-30T14:35:23;2.65;;;1.17;;
19869;SDS011;10097;50.862;4.696;2022-09-30T14:37:57;5.22;;;1.40;;
19869;SDS011;10097;50.862;4.696;2022-09-30T14:40:31;3.58;;;0.90;;
19869;SDS011;10097;50.862;4.696;2022-09-30T14:43:04;5.00;;;1.20;;
19869;SDS011;10097;50.862;4.696;2022-09-30T14:45:38;2.95;;;1.00;;
19869;SDS011;10097;50.862;4.696;2022-09-30T14:48:08;3.13;;;1.20;;
19869;SDS011;10097;50.862;4.696;2022-09-30T14:50:52;3.10;;;1.20;;
19869;SDS011;10097;50.862;4.696;2022-09-30T14:53:30;5.30;;;1.48;;
19869;SDS011;10097;50.862;4.696;2022-09-30T14:55:57;4.07;;;1.65;;
19869;SDS011;10097;50.862;4.696;2022-09-30T14:58:30;5.30;;;1.20;;
19869;SDS011;10097;50.862;4.696;2022-09-30T15:01:09;3.30;;;1.20;;
19869;SDS011;10097;50.862;4.696;2022-09-30T15:03:52;1.65;;;0.90;;
19869;SDS011;10097;50.862;4.696;2022-09-30T15:06:34;3.45;;;0.98;;
19869;SDS011;10097;50.862;4.696;2022-09-30T15:09:14;6.25;;;1.23;;
19869;SDS011;10097;50.862;4.696;2022-09-30T15:11:58;2.92;;;1.02;;
19869;SDS011;10097;50.862;4.696;2022-09-30T15:14:49;3.22;;;1.15;;
19869;SDS011;10097;50.862;4.696;2022-09-30T15:17:22;3.67;;;0.93;;
19869;SDS011;10097;50.862;4.696;2022-09-30T15:20:00;2.70;;;1.10;;
19869;SDS011;10097;50.862;4.696;2022-09-30T15:22:44;3.67;;;1.42;;
19869;SDS011;10097;50.862;4.696;2022-09-30T15:25:20;5.00;;;1.52;;
19869;SDS011;10097;50.862;4.696;2022-09-30T15:27:49;7.55;;;1.33;;
19869;SDS011;10097;50.862;4.696;2022-09-30T15:32:46;3.65;;;1.23;;
19869;SDS011;10097;50.862;4.696;2022-09-30T15:35:13;3.33;;;1.40;;
19869;SDS011;10097;50.862;4.696;2022-09-30T15:37:46;5.05;;;1.20;;
19869;SDS011;10097;50.862;4.696;2022-09-30T15:40:21;6.80;;;1.58;;
19869;SDS011;10097;50.862;4.696;2022-09-30T15:43:09;4.18;;;1.40;;
19869;SDS011;10097;50.862;4.696;2022-09-30T15:45:46;7.95;;;1.45;;
19869;SDS011;10097;50.862;4.696;2022-09-30T15:50:52;4.82;;;1.60;;
19869;SDS011;10097;50.862;4.696;2022-09-30T15:53:23;2.95;;;1.10;;
19869;SDS011;10097;50.862;4.696;2022-09-30T15:55:54;2.95;;;0.98;;
19869;SDS011;10097;50.862;4.696;2022-09-30T16:01:18;3.75;;;1.38;;
19869;SDS011;10097;50.862;4.696;2022-09-30T16:03:58;6.50;;;1.58;;
19869;SDS011;10097;50.862;4.696;2022-09-30T16:09:40;4.28;;;1.90;;
19869;SDS011;10097;50.862;4.696;2022-09-30T16:17:33;6.03;;;1.35;;
19869;SDS011;10097;50.862;4.696;2022-09-30T16:30:40;4.70;;;1.52;;
19869;SDS011;10097;50.862;4.696;2022-09-30T16:33:14;3.40;;;1.10;;
19869;SDS011;10097;50.862;4.696;2022-09-30T16:35:46;4.68;;;1.50;;
19869;SDS011;10097;50.862;4.696;2022-09-30T16:38:17;3.88;;;1.40;;
19869;SDS011;10097;50.862;4.696;2022-09-30T16:40:44;4.80;;;1.27;;
19869;SDS011;10097;50.862;4.696;2022-09-30T16:43:21;8.20;;;1.40;;
19869;SDS011;10097;50.862;4.696;2022-09-30T16:45:51;4.45;;;1.60;;
19869;SDS011;10097;50.862;4.696;2022-09-30T16:48:17;4.78;;;1.77;;
19869;SDS011;10097;50.862;4.696;2022-09-30T16:50:48;6.05;;;2.00;;
19869;SDS011;10097;50.862;4.696;2022-09-30T16:53:24;3.30;;;1.40;;
19869;SDS011;10097;50.862;4.696;2022-09-30T16:55:59;6.15;;;1.70;;
19869;SDS011;10097;50.862;4.696;2022-09-30T16:58:27;5.17;;;1.60;;
19869;SDS011;10097;50.862;4.696;2022-09-30T17:00:55;5.22;;;1.63;;
19869;SDS011;10097;50.862;4.696;2022-09-30T17:03:24;4.05;;;1.52;;
19869;SDS011;10097;50.862;4.696;2022-09-30T17:05:54;4.60;;;1.53;;
19869;SDS011;10097;50.862;4.696;2022-09-30T17:08:23;6.75;;;1.73;;
19869;SDS011;10097;50.862;4.696;2022-09-30T17:10:57;5.17;;;1.60;;
19869;SDS011;10097;50.862;4.696;2022-09-30T17:13:24;2.83;;;1.17;;
19869;SDS011;10097;50.862;4.696;2022-09-30T17:15:57;3.45;;;1.10;;
19869;SDS011;10097;50.862;4.696;2022-09-30T17:18:23;4.85;;;1.60;;
19869;SDS011;10097;50.862;4.696;2022-09-30T17:20:56;5.57;;;1.80;;
19869;SDS011;10097;50.862;4.696;2022-09-30T17:23:32;4.13;;;1.70;;
19869;SDS011;10097;50.862;4.696;2022-09-30T17:26:05;8.83;;;1.80;;
19869;SDS011;10097;50.862;4.696;2022-09-30T17:28:48;4.57;;;1.80;;
19869;SDS011;10097;50.862;4.696;2022-09-30T17:31:42;4.20;;;1.80;;
19869;SDS011;10097;50.862;4.696;2022-09-30T17:34:10;4.10;;;1.37;;
19869;SDS011;10097;50.862;4.696;2022-09-30T17:36:53;7.03;;;1.80;;
19869;SDS011;10097;50.862;4.696;2022-09-30T17:39:26;4.17;;;1.47;;
19869;SDS011;10097;50.862;4.696;2022-09-30T17:42:03;7.73;;;1.93;;
19869;SDS011;10097;50.862;4.696;2022-09-30T17:44:48;5.93;;;1.43;;
19869;SDS011;10097;50.862;4.696;2022-09-30T17:47:40;4.27;;;1.30;;
19869;SDS011;10097;50.862;4.696;2022-09-30T17:50:13;3.07;;;1.40;;
19869;SDS011;10097;50.862;4.696;2022-09-30T17:52:42;2.50;;;1.30;;
19869;SDS011;10097;50.862;4.696;2022-09-30T17:55:08;3.40;;;1.37;;
19869;SDS011;10097;50.862;4.696;2022-09-30T17:57:34;5.93;;;2.00;;
19869;SDS011;10097;50.862;4.696;2022-09-30T18:00:12;5.97;;;1.60;;
19869;SDS011;10097;50.862;4.696;2022-09-30T18:02:43;5.53;;;1.20;;
19869;SDS011;10097;50.862;4.696;2022-09-30T18:05:14;3.97;;;1.43;;
19869;SDS011;10097;50.862;4.696;2022-09-30T18:07:45;5.67;;;1.47;;
19869;SDS011;10097;50.862;4.696;2022-09-30T18:10:16;3.70;;;1.37;;
19869;SDS011;10097;50.862;4.696;2022-09-30T18:12:42;3.63;;;1.27;;
19869;SDS011;10097;50.862;4.696;2022-09-30T18:15:27;4.27;;;2.03;;
19869;SDS011;10097;50.862;4.696;2022-09-30T18:17:56;4.67;;;1.60;;
19869;SDS011;10097;50.862;4.696;2022-09-30T18:20:24;4.07;;;1.73;;
19869;SDS011;10097;50.862;4.696;2022-09-30T18:22:53;4.03;;;2.27;;
19869;SDS011;10097;50.862;4.696;2022-09-30T18:25:21;6.23;;;2.30;;
19869;SDS011;10097;50.862;4.696;2022-09-30T18:27:50;5.17;;;2.03;;
19869;SDS011;10097;50.862;4.696;2022-09-30T18:30:27;6.37;;;2.03;;
19869;SDS011;10097;50.862;4.696;2022-09-30T18:32:53;10.00;;;2.27;;
19869;SDS011;10097;50.862;4.696;2022-09-30T18:35:23;5.83;;;1.70;;
19869;SDS011;10097;50.862;4.696;2022-09-30T18:37:57;3.70;;;1.87;;
19869;SDS011;10097;50.862;4.696;2022-09-30T18:40:26;6.40;;;1.87;;
19869;SDS011;10097;50.862;4.696;2022-09-30T18:42:54;5.97;;;2.00;;
19869;SDS011;10097;50.862;4.696;2022-09-30T18:45:52;3.30;;;1.50;;
19869;SDS011;10097;50.862;4.696;2022-09-30T18:48:20;7.03;;;1.90;;
19869;SDS011;10097;50.862;4.696;2022-09-30T18:50:53;5.70;;;1.93;;
19869;SDS011;10097;50.862;4.696;2022-09-30T18:53:27;4.13;;;1.77;;
19869;SDS011;10097;50.862;4.696;2022-09-30T18:56:01;4.33;;;1.57;;
19869;SDS011;10097;50.862;4.696;2022-09-30T18:58:28;4.43;;;1.50;;